createdAt,value
2023-01-09T00:01:35.264Z,1.50
2023-01-09T00:04:03.785Z,1.17
2023-01-09T00:06:32.933Z,0.98
2023-01-09T00:09:01.132Z,1.60
2023-01-09T00:11:29.302Z,1.70
2023-01-09T00:13:57.082Z,1.60
2023-01-09T00:16:25.102Z,1.60
2023-01-09T00:18:53.668Z,1.65
2023-01-09T00:21:21.969Z,1.55
2023-01-09T00:23:50.060Z,1.85
2023-01-09T00:26:21.222Z,1.70
2023-01-09T00:28:51.618Z,1.70
2023-01-09T00:31:19.646Z,1.33
2023-01-09T00:34:01.057Z,1.38
2023-01-09T00:36:29.676Z,1.58
2023-01-09T00:38:57.786Z,1.42
2023-01-09T00:41:39.650Z,1.40
2023-01-09T00:44:15.197Z,1.38
2023-01-09T00:46:49.313Z,1.50
2023-01-09T00:49:18.958Z,1.60
2023-01-09T00:51:47.183Z,2.17
2023-01-09T00:54:17.839Z,2.05
2023-01-09T00:56:46.430Z,2.35
2023-01-09T00:59:14.300Z,1.95
2023-01-09T01:01:42.547Z,2.00
2023-01-09T01:04:28.993Z,2.10
2023-01-09T01:07:15.340Z,1.67
2023-01-09T01:09:43.135Z,1.60
2023-01-09T01:12:11.081Z,1.88
2023-01-09T01:14:39.067Z,1.67
2023-01-09T01:17:08.319Z,1.73
2023-01-09T01:19:36.398Z,2.10
2023-01-09T01:22:05.302Z,2.08
2023-01-09T01:24:33.660Z,2.70
2023-01-09T01:27:01.506Z,2.13
2023-01-09T01:29:29.353Z,1.80
2023-01-09T01:31:57.079Z,2.10
2023-01-09T01:34:25.393Z,2.05
2023-01-09T01:36:53.055Z,2.00
2023-01-09T01:39:20.968Z,2.03
2023-01-09T01:41:49.807Z,2.38
2023-01-09T01:44:55.090Z,2.33
2023-01-09T01:47:28.741Z,1.80
2023-01-09T01:49:57.036Z,2.20
2023-01-09T01:52:25.849Z,2.10
2023-01-09T01:54:54.837Z,1.80
2023-01-09T01:57:22.632Z,1.70
2023-01-09T01:59:55.690Z,1.98
2023-01-09T02:02:28.589Z,1.80
2023-01-09T02:04:59.222Z,1.80
2023-01-09T02:07:26.980Z,1.73
2023-01-09T02:09:55.583Z,1.95
2023-01-09T02:12:26.317Z,1.77
2023-01-09T02:15:08.701Z,1.40
2023-01-09T02:17:48.791Z,1.30
2023-01-09T02:20:30.398Z,1.33
2023-01-09T02:23:24.302Z,1.40
2023-01-09T02:26:16.959Z,1.42
2023-01-09T02:29:16.645Z,0.80
2023-01-09T02:31:56.953Z,1.02
2023-01-09T02:34:32.934Z,1.13
2023-01-09T02:37:18.151Z,1.30
2023-01-09T02:40:25.220Z,1.10
2023-01-09T02:42:54.894Z,1.13
2023-01-09T02:45:22.862Z,1.10
2023-01-09T02:47:50.851Z,0.90
2023-01-09T02:50:36.933Z,1.08
2023-01-09T02:53:26.621Z,1.00
2023-01-09T02:56:12.728Z,1.08
2023-01-09T02:58:52.669Z,0.82
2023-01-09T03:01:46.701Z,0.90
2023-01-09T03:04:23.715Z,0.85
2023-01-09T03:07:30.922Z,0.98
2023-01-09T03:10:23.512Z,1.00
2023-01-09T03:12:55.540Z,1.08
2023-01-09T03:15:28.502Z,1.13
2023-01-09T03:17:58.173Z,0.90
2023-01-09T03:20:29.881Z,0.85
2023-01-09T03:23:00.476Z,0.80
2023-01-09T03:25:30.460Z,1.00
2023-01-09T03:28:01.716Z,0.80
2023-01-09T03:30:32.226Z,0.80
2023-01-09T03:33:00.402Z,1.05
2023-01-09T03:35:28.812Z,0.80
2023-01-09T03:37:56.899Z,0.70
2023-01-09T03:40:24.825Z,0.85
2023-01-09T03:42:52.535Z,0.88
2023-01-09T03:45:20.396Z,0.73
2023-01-09T03:47:48.379Z,0.80
2023-01-09T03:50:16.223Z,0.70
2023-01-09T03:52:44.003Z,0.70
2023-01-09T03:55:13.727Z,0.85
2023-01-09T03:57:42.887Z,0.82
2023-01-09T04:00:11.518Z,0.70
2023-01-09T04:02:43.464Z,0.82
2023-01-09T04:05:11.417Z,0.80
2023-01-09T04:07:39.928Z,0.68
2023-01-09T04:10:08.474Z,0.70
2023-01-09T04:12:36.125Z,1.05
2023-01-09T04:15:04.276Z,0.68
2023-01-09T04:17:31.994Z,0.98
2023-01-09T04:19:59.840Z,0.80
2023-01-09T04:22:27.700Z,0.90
2023-01-09T04:24:55.573Z,0.68
2023-01-09T04:27:23.511Z,0.80
2023-01-09T04:29:51.231Z,0.82
2023-01-09T04:32:18.883Z,0.75
2023-01-09T04:34:46.783Z,0.80
2023-01-09T04:37:14.902Z,0.70
2023-01-09T04:39:46.132Z,0.85
2023-01-09T04:42:13.954Z,0.73
2023-01-09T04:44:41.581Z,0.90
2023-01-09T04:47:09.711Z,0.80
2023-01-09T04:49:37.538Z,0.82
2023-01-09T04:52:05.993Z,0.70
2023-01-09T04:54:34.770Z,0.70
2023-01-09T04:57:02.539Z,0.93
2023-01-09T04:59:30.258Z,0.80
2023-01-09T05:01:59.765Z,1.00
2023-01-09T05:04:27.818Z,0.70
2023-01-09T05:06:55.556Z,0.60
2023-01-09T05:09:23.330Z,0.73
2023-01-09T05:11:51.356Z,0.73
2023-01-09T05:14:19.389Z,0.70
2023-01-09T05:16:47.394Z,0.82
2023-01-09T05:19:15.243Z,0.60
2023-01-09T05:21:43.504Z,0.77
2023-01-09T05:24:11.445Z,0.80
2023-01-09T05:26:39.255Z,0.80
2023-01-09T05:29:07.075Z,1.30
2023-01-09T05:31:34.719Z,0.90
2023-01-09T05:34:02.525Z,0.85
2023-01-09T05:36:30.806Z,1.50
2023-01-09T05:38:58.809Z,1.88
2023-01-09T05:41:26.657Z,2.30
2023-01-09T05:43:54.544Z,2.50
2023-01-09T05:46:22.611Z,2.63
2023-01-09T05:48:50.402Z,2.55
2023-01-09T05:51:18.328Z,2.67
2023-01-09T05:53:46.120Z,2.40
2023-01-09T05:56:13.842Z,2.15
2023-01-09T05:58:41.901Z,1.63
2023-01-09T06:01:09.774Z,1.80
2023-01-09T06:03:37.550Z,1.40
2023-01-09T06:06:05.458Z,2.15
2023-01-09T06:08:33.365Z,2.78
2023-01-09T06:11:01.483Z,2.50
2023-01-09T06:13:29.440Z,2.38
2023-01-09T06:15:57.460Z,2.10
2023-01-09T06:18:25.272Z,1.83
2023-01-09T06:20:53.237Z,2.40
2023-01-09T06:23:20.988Z,3.10
2023-01-09T06:25:48.989Z,2.58
2023-01-09T06:28:16.912Z,2.15
2023-01-09T06:30:45.525Z,1.40
2023-01-09T06:33:13.321Z,0.93
2023-01-09T06:35:41.478Z,1.00
2023-01-09T06:38:09.443Z,3.20
2023-01-09T06:40:37.455Z,4.88
2023-01-09T06:43:05.517Z,3.67
2023-01-09T06:45:33.577Z,2.40
2023-01-09T06:48:01.568Z,1.58
2023-01-09T06:50:29.757Z,1.27
2023-01-09T06:52:57.511Z,0.63
2023-01-09T06:55:26.549Z,0.70
2023-01-09T06:57:54.474Z,0.75
2023-01-09T07:00:22.675Z,0.60
2023-01-09T07:02:50.556Z,0.73
2023-01-09T07:05:18.559Z,0.63
2023-01-09T07:07:47.619Z,0.45
2023-01-09T07:10:16.443Z,0.30
2023-01-09T07:12:45.517Z,0.20
2023-01-09T07:15:13.540Z,0.32
2023-01-09T07:17:42.073Z,0.50
2023-01-09T07:20:10.883Z,0.50
2023-01-09T07:22:38.759Z,0.47
2023-01-09T07:25:06.766Z,0.40
2023-01-09T07:27:34.860Z,0.60
2023-01-09T07:30:03.659Z,0.50
2023-01-09T07:32:32.304Z,0.63
2023-01-09T07:34:59.993Z,0.43
2023-01-09T07:37:27.767Z,0.60
2023-01-09T07:39:55.727Z,0.80
2023-01-09T07:42:23.581Z,0.60
2023-01-09T07:44:52.364Z,0.57
2023-01-09T07:47:20.350Z,0.50
2023-01-09T07:49:48.056Z,0.70
2023-01-09T07:52:16.061Z,0.52
2023-01-09T07:54:43.779Z,0.80
2023-01-09T07:57:11.660Z,3.83
2023-01-09T07:59:39.265Z,5.05
2023-01-09T08:02:07.442Z,5.25
2023-01-09T08:04:35.619Z,4.18
2023-01-09T08:07:03.703Z,3.10
2023-01-09T08:09:31.633Z,1.83
2023-01-09T08:12:01.287Z,1.55
2023-01-09T08:14:28.935Z,1.20
2023-01-09T08:16:56.771Z,1.55
2023-01-09T08:19:24.592Z,1.45
2023-01-09T08:21:52.321Z,1.30
2023-01-09T08:24:20.084Z,1.33
2023-01-09T08:26:47.931Z,1.30
2023-01-09T08:29:15.681Z,1.00
2023-01-09T08:31:45.103Z,1.52
2023-01-09T08:34:12.844Z,1.42
2023-01-09T08:36:40.639Z,1.30
2023-01-09T08:39:09.793Z,1.05
2023-01-09T08:41:56.099Z,0.90
2023-01-09T08:44:42.615Z,1.13
2023-01-09T08:47:10.524Z,1.30
2023-01-09T08:49:39.628Z,1.45
2023-01-09T08:52:08.307Z,1.20
2023-01-09T08:54:39.173Z,1.00
2023-01-09T08:57:07.942Z,1.00
2023-01-09T08:59:35.821Z,1.50
2023-01-09T09:02:03.573Z,1.15
2023-01-09T09:04:31.460Z,1.00
2023-01-09T09:06:59.177Z,1.00
2023-01-09T09:09:27.000Z,1.13
2023-01-09T09:11:54.806Z,1.13
2023-01-09T09:14:41.191Z,1.23
2023-01-09T09:17:08.943Z,1.38
2023-01-09T09:19:36.572Z,1.80
2023-01-09T09:22:04.235Z,2.70
2023-01-09T09:24:32.046Z,2.33
2023-01-09T09:26:59.784Z,2.70
2023-01-09T09:29:27.612Z,2.30
2023-01-09T09:31:55.519Z,3.15
2023-01-09T09:34:23.566Z,2.40
2023-01-09T09:36:51.603Z,2.67
2023-01-09T09:39:19.485Z,2.50
2023-01-09T09:42:21.876Z,2.75
2023-01-09T09:45:19.780Z,2.40
2023-01-09T09:47:59.756Z,2.33
2023-01-09T09:51:01.530Z,3.00
2023-01-09T09:53:36.210Z,2.58
2023-01-09T09:56:05.718Z,2.67
2023-01-09T09:58:38.229Z,2.72
2023-01-09T10:01:08.201Z,2.42
2023-01-09T10:03:52.999Z,3.10
2023-01-09T10:06:29.513Z,2.35
2023-01-09T10:09:17.759Z,2.85
2023-01-09T10:12:00.726Z,2.58
2023-01-09T10:14:29.402Z,2.90
2023-01-09T10:17:38.996Z,2.70
2023-01-09T10:20:25.147Z,3.10
2023-01-09T10:23:08.291Z,2.45
2023-01-09T10:25:40.856Z,2.40
2023-01-09T10:28:46.162Z,2.80
2023-01-09T10:31:50.685Z,2.40
2023-01-09T10:34:36.732Z,2.33
2023-01-09T10:37:18.953Z,2.30
2023-01-09T10:40:01.993Z,2.97
2023-01-09T10:42:39.231Z,2.88
2023-01-09T10:45:19.595Z,2.33
2023-01-09T10:47:48.585Z,3.50
2023-01-09T10:50:25.601Z,3.55
2023-01-09T10:52:57.024Z,2.83
2023-01-09T10:55:47.056Z,2.40
2023-01-09T10:58:18.830Z,2.20
2023-01-09T11:00:48.956Z,1.75
2023-01-09T11:03:22.543Z,2.22
2023-01-09T11:05:52.748Z,1.80
2023-01-09T11:08:35.926Z,1.88
2023-01-09T11:11:04.038Z,1.80
2023-01-09T11:13:34.241Z,2.03
2023-01-09T11:16:12.017Z,1.50
2023-01-09T11:19:00.000Z,1.95
2023-01-09T11:21:42.033Z,2.00
2023-01-09T11:24:18.974Z,1.67
2023-01-09T11:26:51.855Z,1.48
2023-01-09T11:29:24.785Z,1.48
2023-01-09T11:31:55.606Z,1.30
2023-01-09T11:34:26.347Z,1.25
2023-01-09T11:37:05.265Z,1.10
2023-01-09T11:39:35.639Z,5.38
2023-01-09T11:42:06.636Z,6.07
2023-01-09T11:44:36.130Z,6.50
2023-01-09T11:47:38.294Z,5.82
2023-01-09T11:50:26.652Z,5.53
2023-01-09T11:53:16.844Z,4.20
2023-01-09T11:55:46.916Z,3.72
2023-01-09T11:58:21.900Z,2.97
2023-01-09T12:01:02.699Z,2.60
2023-01-09T12:03:36.367Z,2.03
2023-01-09T12:06:18.708Z,2.17
2023-01-09T12:08:49.308Z,2.08
2023-01-09T12:11:30.714Z,1.95
2023-01-09T12:14:20.051Z,1.73
2023-01-09T12:16:59.270Z,1.60
2023-01-09T12:20:01.995Z,1.58
2023-01-09T12:22:35.804Z,1.85
2023-01-09T12:25:29.738Z,2.33
2023-01-09T12:28:12.744Z,2.15
2023-01-09T12:31:03.096Z,1.90
2023-01-09T12:33:41.496Z,2.35
2023-01-09T12:36:23.911Z,2.28
2023-01-09T12:39:04.099Z,2.20
2023-01-09T12:41:46.801Z,2.22
2023-01-09T12:44:42.910Z,1.77
2023-01-09T12:47:32.459Z,1.58
2023-01-09T12:50:24.020Z,2.20
2023-01-09T12:52:57.789Z,2.10
2023-01-09T12:55:32.533Z,3.30
2023-01-09T12:58:07.660Z,3.42
2023-01-09T13:00:43.419Z,3.33
2023-01-09T13:03:21.437Z,3.70
2023-01-09T13:05:53.617Z,3.63
2023-01-09T13:08:32.074Z,3.10
2023-01-09T13:11:20.011Z,3.33
2023-01-09T13:14:00.386Z,12.27
2023-01-09T13:16:37.226Z,10.85
2023-01-09T13:19:26.566Z,7.72
2023-01-09T13:21:56.717Z,5.47
2023-01-09T13:24:30.418Z,4.00
2023-01-09T13:27:11.093Z,3.75
2023-01-09T13:29:46.025Z,2.60
2023-01-09T13:32:32.653Z,2.97
2023-01-09T13:35:01.597Z,2.75
2023-01-09T13:37:37.195Z,2.35
2023-01-09T13:40:27.157Z,2.80
2023-01-09T13:43:10.775Z,3.55
2023-01-09T13:45:40.208Z,3.65
2023-01-09T13:48:20.248Z,3.28
2023-01-09T13:50:51.166Z,2.83
2023-01-09T13:53:19.043Z,2.28
2023-01-09T13:56:14.586Z,1.90
2023-01-09T13:58:54.668Z,2.20
2023-01-09T14:01:26.081Z,2.35
2023-01-09T14:04:14.675Z,2.50
2023-01-09T14:06:45.113Z,1.98
2023-01-09T14:09:21.203Z,2.00
2023-01-09T14:12:02.154Z,1.83
2023-01-09T14:14:33.459Z,1.48
2023-01-09T14:17:03.763Z,1.60
2023-01-09T14:19:40.026Z,1.40
2023-01-09T14:22:23.579Z,1.40
2023-01-09T14:24:53.073Z,1.15
2023-01-09T14:27:55.112Z,1.25
2023-01-09T14:30:25.977Z,1.10
2023-01-09T14:33:15.463Z,1.10
2023-01-09T14:35:53.461Z,1.20
2023-01-09T14:38:48.460Z,1.00
2023-01-09T14:41:41.954Z,1.10
2023-01-09T14:44:24.769Z,1.52
2023-01-09T14:46:53.770Z,1.67
2023-01-09T14:49:34.419Z,2.30
2023-01-09T14:52:13.428Z,1.80
2023-01-09T14:54:44.066Z,1.40
2023-01-09T14:57:32.504Z,1.60
2023-01-09T15:00:19.082Z,1.45
2023-01-09T15:02:48.193Z,1.38
2023-01-09T15:05:20.914Z,1.40
2023-01-09T15:08:02.210Z,2.13
2023-01-09T15:10:33.800Z,1.60
2023-01-09T15:13:05.667Z,1.80
2023-01-09T15:15:35.842Z,1.60
2023-01-09T15:18:07.888Z,2.92
2023-01-09T15:20:36.974Z,4.00
2023-01-09T15:23:05.564Z,5.00
2023-01-09T15:25:40.244Z,4.13
2023-01-09T15:28:31.108Z,2.92
2023-01-09T15:31:11.920Z,2.15
2023-01-09T15:33:41.658Z,2.22
2023-01-09T15:36:23.143Z,1.38
2023-01-09T15:38:52.683Z,2.30
2023-01-09T15:41:44.964Z,1.92
2023-01-09T15:44:26.575Z,1.70
2023-01-09T15:47:00.533Z,2.15
2023-01-09T15:49:29.250Z,1.50
2023-01-09T15:51:57.342Z,1.42
2023-01-09T15:54:33.294Z,1.45
2023-01-09T15:57:26.167Z,1.90
2023-01-09T15:59:55.591Z,1.80
2023-01-09T16:02:43.891Z,1.85
2023-01-09T16:05:16.879Z,1.70
2023-01-09T16:07:46.813Z,2.20
2023-01-09T16:10:36.229Z,1.70
2023-01-09T16:13:04.163Z,1.63
2023-01-09T16:15:35.074Z,1.67
2023-01-09T16:18:30.987Z,1.98
2023-01-09T16:21:23.117Z,1.70
2023-01-09T16:23:56.308Z,1.77
2023-01-09T16:26:26.536Z,1.98
2023-01-09T16:28:55.223Z,2.00
2023-01-09T16:31:30.065Z,1.67
2023-01-09T16:34:04.556Z,1.27
2023-01-09T16:36:35.379Z,1.70
2023-01-09T16:39:08.493Z,2.10
2023-01-09T16:41:54.729Z,1.73
2023-01-09T16:44:22.748Z,1.35
2023-01-09T16:46:50.637Z,1.45
2023-01-09T16:49:22.948Z,1.50
2023-01-09T16:51:51.929Z,1.27
2023-01-09T16:54:20.790Z,1.42
2023-01-09T16:56:51.225Z,2.20
2023-01-09T16:59:21.759Z,1.67
2023-01-09T17:01:49.855Z,1.35
2023-01-09T17:04:20.153Z,1.30
2023-01-09T17:06:49.436Z,1.30
2023-01-09T17:09:19.754Z,1.60
2023-01-09T17:11:47.683Z,1.35
2023-01-09T17:14:15.618Z,1.50
2023-01-09T17:16:46.224Z,1.30
2023-01-09T17:19:18.865Z,1.27
2023-01-09T17:21:47.406Z,1.52
2023-01-09T17:24:33.996Z,1.70
2023-01-09T17:27:22.354Z,1.50
2023-01-09T17:29:50.095Z,1.65
2023-01-09T17:32:18.697Z,1.80
2023-01-09T17:34:46.494Z,1.60
2023-01-09T17:37:19.768Z,1.25
2023-01-09T17:39:48.091Z,1.70
2023-01-09T17:42:16.144Z,1.45
2023-01-09T17:44:44.170Z,1.25
2023-01-09T17:47:15.666Z,1.23
2023-01-09T17:49:46.096Z,1.40
2023-01-09T17:52:14.012Z,1.20
2023-01-09T17:54:43.370Z,1.27
2023-01-09T17:57:16.511Z,1.20
2023-01-09T17:59:45.225Z,1.05
2023-01-09T18:02:18.367Z,1.63
2023-01-09T18:04:46.448Z,1.70
2023-01-09T18:07:16.043Z,1.30
2023-01-09T18:09:45.490Z,1.27
2023-01-09T18:12:13.879Z,1.38
2023-01-09T18:14:42.366Z,1.73
2023-01-09T18:17:14.137Z,6.75
2023-01-09T18:19:42.352Z,9.05
2023-01-09T18:22:10.296Z,7.88
2023-01-09T18:24:38.525Z,5.75
2023-01-09T18:27:06.357Z,7.68
2023-01-09T18:29:34.219Z,8.07
2023-01-09T18:32:02.077Z,9.85
2023-01-09T18:34:30.179Z,8.77
2023-01-09T18:36:58.091Z,6.82
2023-01-09T18:39:26.279Z,5.80
2023-01-09T18:41:54.082Z,4.72
2023-01-09T18:44:22.529Z,4.53
2023-01-09T18:46:50.496Z,4.00
2023-01-09T18:49:18.293Z,3.55
2023-01-09T18:51:46.492Z,2.50
2023-01-09T18:54:15.538Z,2.58
2023-01-09T18:56:43.186Z,3.30
2023-01-09T18:59:11.377Z,4.95
2023-01-09T19:01:39.164Z,5.90
2023-01-09T19:04:06.954Z,5.95
2023-01-09T19:06:34.888Z,4.47
2023-01-09T19:09:02.594Z,3.20
2023-01-09T19:11:30.409Z,2.20
2023-01-09T19:13:58.370Z,2.63
2023-01-09T19:16:26.349Z,2.05
2023-01-09T19:18:54.011Z,2.90
2023-01-09T19:21:27.028Z,2.50
2023-01-09T19:23:56.283Z,2.97
2023-01-09T19:26:26.547Z,3.00
2023-01-09T19:28:57.635Z,3.05
2023-01-09T19:31:28.754Z,3.10
2023-01-09T19:33:57.569Z,2.60
2023-01-09T19:36:26.101Z,2.70
2023-01-09T19:39:02.241Z,3.47
2023-01-09T19:41:30.609Z,2.95
2023-01-09T19:44:02.169Z,2.92
2023-01-09T19:46:30.825Z,2.72
2023-01-09T19:48:59.093Z,3.10
2023-01-09T19:51:27.598Z,6.50
2023-01-09T19:54:03.394Z,6.35
2023-01-09T19:56:35.702Z,5.13
2023-01-09T19:59:05.003Z,4.63
2023-01-09T20:01:36.283Z,4.85
2023-01-09T20:04:10.169Z,4.80
2023-01-09T20:06:41.677Z,4.95
2023-01-09T20:09:12.367Z,5.35
2023-01-09T20:11:41.469Z,4.25
2023-01-09T20:14:17.210Z,35.65
2023-01-09T20:16:48.774Z,30.98
2023-01-09T20:19:16.813Z,21.30
2023-01-09T20:21:44.556Z,16.10
2023-01-09T20:24:19.291Z,12.07
2023-01-09T20:26:47.161Z,8.73
2023-01-09T20:29:15.077Z,7.43
2023-01-09T20:31:44.253Z,5.55
2023-01-09T20:34:14.945Z,4.60
2023-01-09T20:36:43.334Z,4.15
2023-01-09T20:39:12.642Z,3.58
2023-01-09T20:41:40.395Z,3.60
2023-01-09T20:44:12.202Z,3.20
2023-01-09T20:46:42.845Z,3.10
2023-01-09T20:49:13.234Z,3.25
2023-01-09T20:51:45.299Z,4.03
2023-01-09T20:54:14.305Z,5.28
2023-01-09T20:56:43.186Z,5.53
2023-01-09T20:59:13.882Z,5.60
2023-01-09T21:01:41.788Z,5.03
2023-01-09T21:04:10.157Z,5.10
2023-01-09T21:06:38.637Z,4.95
2023-01-09T21:09:06.783Z,4.85
2023-01-09T21:11:34.530Z,4.38
2023-01-09T21:14:02.247Z,4.38
2023-01-09T21:16:30.415Z,3.95
2023-01-09T21:18:58.477Z,3.88
2023-01-09T21:21:30.061Z,2.67
2023-01-09T21:24:00.697Z,3.00
2023-01-09T21:26:30.905Z,2.80
2023-01-09T21:29:00.659Z,2.80
2023-01-09T21:31:35.472Z,2.40
2023-01-09T21:34:06.417Z,2.53
2023-01-09T21:36:35.775Z,3.65
2023-01-09T21:39:08.068Z,4.43
2023-01-09T21:41:56.528Z,5.10
2023-01-09T21:44:50.360Z,4.75
2023-01-09T21:47:18.208Z,5.38
2023-01-09T21:49:46.329Z,4.10
2023-01-09T21:52:15.237Z,3.80
2023-01-09T21:54:47.621Z,3.67
2023-01-09T21:57:15.921Z,3.03
2023-01-09T21:59:43.673Z,2.67
2023-01-09T22:02:16.194Z,2.40
2023-01-09T22:04:48.923Z,2.53
2023-01-09T22:07:16.966Z,1.92
2023-01-09T22:09:45.837Z,2.17
2023-01-09T22:12:13.749Z,2.10
2023-01-09T22:14:42.439Z,2.20
2023-01-09T22:17:10.436Z,1.73
2023-01-09T22:19:38.743Z,2.55
2023-01-09T22:22:08.649Z,4.35
2023-01-09T22:24:36.673Z,6.47
2023-01-09T22:27:04.861Z,6.90
2023-01-09T22:29:34.299Z,6.78
2023-01-09T22:32:04.421Z,4.65
2023-01-09T22:34:33.365Z,4.05
2023-01-09T22:37:01.342Z,3.10
2023-01-09T22:39:29.187Z,2.35
2023-01-09T22:41:57.066Z,2.30
2023-01-09T22:44:24.803Z,2.20
2023-01-09T22:46:52.579Z,1.80
2023-01-09T22:49:20.315Z,1.67
2023-01-09T22:51:49.997Z,1.45
2023-01-09T22:54:19.621Z,1.70
2023-01-09T22:56:50.003Z,1.90
2023-01-09T22:59:18.063Z,1.70
2023-01-09T23:01:46.137Z,1.58
2023-01-09T23:04:13.807Z,1.35
2023-01-09T23:06:41.566Z,1.10
2023-01-09T23:09:09.397Z,1.67
2023-01-09T23:11:55.546Z,1.63
2023-01-09T23:14:41.956Z,2.60
2023-01-09T23:17:28.080Z,3.20
2023-01-09T23:20:14.595Z,2.65
2023-01-09T23:23:00.936Z,2.67
2023-01-09T23:25:51.993Z,2.40
2023-01-09T23:28:38.029Z,2.67
2023-01-09T23:31:24.601Z,2.40
2023-01-09T23:34:15.096Z,2.20
2023-01-09T23:37:01.407Z,2.50
2023-01-09T23:39:47.927Z,2.20
2023-01-09T23:42:52.799Z,1.38
2023-01-09T23:45:44.432Z,1.95
2023-01-09T23:48:30.679Z,2.00
2023-01-09T23:51:16.946Z,2.25
2023-01-09T23:54:04.316Z,2.75
2023-01-09T23:56:50.448Z,3.57
2023-01-09T23:59:18.260Z,2.60
